Time;durP1;ratioP1;P1;durP2;ratioP2;P2;SDS_P1;SDS_P2;PMS_P1;PMS_P2;Temp;Humidity;BMP_temperature;BMP_pressure;BME280_temperature;BME280_humidity;BME280_pressure;Samples;Min_cycle;Max_cycle;Signal;HPM_P1;HPM_P2
2023/07/14 00:00:18;;;;;;;;;9.50;8.50;29.90;54.00;;;;;;111069;1241;53945;-72
2023/07/14 00:03:06;;;;;;;;;10.00;9.25;29.90;53.80;;;;;;111054;1241;48143;-73
2023/07/14 00:05:35;;;;;;;;;12.00;11.00;29.90;53.80;;;;;;111390;1246;48829;-71
2023/07/14 00:08:06;;;;;;;;;12.00;11.00;29.90;53.50;;;;;;110996;1247;48933;-70
2023/07/14 00:10:35;;;;;;;;;10.25;10.00;29.90;54.00;;;;;;111050;1247;53967;-71
2023/07/14 00:13:04;;;;;;;;;9.33;9.00;29.90;53.90;;;;;;111045;1247;44917;-71
2023/07/14 00:15:34;;;;;;;;;10.00;9.00;29.90;53.90;;;;;;111357;1244;49271;-71
2023/07/14 00:18:17;;;;;;;;;10.00;8.00;29.90;53.90;;;;;;111091;1244;49828;-71
2023/07/14 00:20:44;;;;;;;;;11.00;9.00;29.90;53.80;;;;;;111032;1247;54053;-71
2023/07/14 00:23:12;;;;;;;;;10.00;9.00;29.90;53.80;;;;;;111075;1245;44172;-69
2023/07/14 00:25:40;;;;;;;;;11.00;9.33;29.90;53.90;;;;;;110948;1246;49726;-69
2023/07/14 00:28:16;;;;;;;;;12.50;10.50;29.80;53.80;;;;;;111114;1247;48978;-68
2023/07/14 00:30:44;;;;;;;;;12.33;11.00;29.90;54.00;;;;;;111051;1244;53740;-71
2023/07/14 00:33:16;;;;;;;;;10.00;9.00;29.80;54.10;;;;;;111120;1243;45215;-70
2023/07/14 00:35:45;;;;;;;;;11.00;10.00;29.80;53.80;;;;;;111408;1243;49053;-69
2023/07/14 00:38:12;;;;;;;;;12.00;10.00;29.80;53.90;;;;;;111061;1241;49833;-70
2023/07/14 00:40:42;;;;;;;;;9.75;9.00;29.80;53.80;;;;;;111061;1243;54524;-70
2023/07/14 00:43:20;;;;;;;;;10.00;8.33;29.90;53.90;;;;;;110964;1243;45486;-70
2023/07/14 00:45:51;;;;;;;;;11.00;11.00;29.80;53.90;;;;;;111337;1244;48912;-70
2023/07/14 00:48:23;;;;;;;;;11.00;10.00;29.80;53.90;;;;;;111109;1243;49764;-70
2023/07/14 00:51:03;;;;;;;;;10.50;9.00;29.80;54.10;;;;;;111035;1245;54021;-70
2023/07/14 00:53:37;;;;;;;;;11.00;10.00;29.80;53.80;;;;;;111052;1243;44358;-70
2023/07/14 00:56:10;;;;;;;;;11.00;10.00;29.80;53.90;;;;;;111379;1241;49739;-69
2023/07/14 00:58:38;;;;;;;;;9.00;8.00;29.80;53.90;;;;;;111048;1245;49787;-69
2023/07/14 01:01:11;;;;;;;;;10.67;9.67;29.80;54.00;;;;;;111055;1243;54475;-71
2023/07/14 01:03:40;;;;;;;;;9.00;8.33;29.80;53.90;;;;;;111079;1247;44307;-70
2023/07/14 01:06:17;;;;;;;;;11.00;10.00;29.80;53.90;;;;;;111334;1247;48636;-70
2023/07/14 01:09:09;;;;;;;;;9.00;8.00;29.80;53.90;;;;;;111050;1244;49954;-70
2023/07/14 01:11:41;;;;;;;;;12.50;10.00;29.80;53.90;;;;;;111034;1243;54151;-70
2023/07/14 01:14:40;;;;;;;;;10.75;10.00;29.80;53.80;;;;;;111158;1247;44436;-70
2023/07/14 01:17:07;;;;;;;;;11.00;9.75;29.80;53.80;;;;;;110910;1247;50750;-71
2023/07/14 01:19:48;;;;;;;;;10.67;9.00;29.80;53.70;;;;;;111076;1246;49725;-69
2023/07/14 01:22:34;;;;;;;;;9.33;8.33;29.90;54.00;;;;;;111047;1243;54141;-70
2023/07/14 01:25:16;;;;;;;;;8.00;8.00;29.80;53.80;;;;;;111353;1244;45099;-71
2023/07/14 01:27:46;;;;;;;;;10.00;10.00;29.80;53.80;;;;;;111042;1244;49631;-70
2023/07/14 01:30:14;;;;;;;;;10.75;9.75;29.80;53.80;;;;;;111059;1246;48794;-70
2023/07/14 01:32:47;;;;;;;;;9.00;8.00;29.80;54.00;;;;;;111053;1247;53377;-70
2023/07/14 01:35:16;;;;;;;;;9.00;8.00;29.80;53.80;;;;;;111416;1241;44842;-69
2023/07/14 01:37:44;;;;;;;;;11.33;10.33;29.80;53.90;;;;;;110934;1243;48407;-71
2023/07/14 01:40:17;;;;;;;;;11.00;9.75;29.80;53.80;;;;;;111141;1247;50162;-70
2023/07/14 01:43:00;;;;;;;;;10.50;8.00;29.80;53.80;;;;;;111057;1244;53147;-70
2023/07/14 01:45:31;;;;;;;;;9.00;8.00;29.80;54.00;;;;;;111025;1246;45216;-70
2023/07/14 01:48:00;;;;;;;;;9.00;9.00;29.80;53.90;;;;;;111064;1244;48729;-69
2023/07/14 01:50:33;;;;;;;;;10.50;9.25;29.80;53.80;;;;;;110966;1247;49207;-70
2023/07/14 01:53:04;;;;;;;;;9.33;8.67;29.80;53.90;;;;;;110916;1245;53776;-69
2023/07/14 01:55:34;;;;;;;;;8.75;8.25;29.80;53.90;;;;;;110925;1247;45048;-71
2023/07/14 01:58:07;;;;;;;;;9.75;8.75;29.70;54.00;;;;;;111005;1244;49684;-69
2023/07/14 02:00:35;;;;;;;;;10.50;9.25;29.70;53.80;;;;;;111017;1247;48756;-69
2023/07/14 02:03:04;;;;;;;;;10.50;9.00;29.70;53.90;;;;;;110925;1241;54804;-70
2023/07/14 02:05:34;;;;;;;;;9.50;9.00;29.70;53.90;;;;;;111352;1247;44920;-69
2023/07/14 02:08:03;;;;;;;;;9.67;9.67;29.70;54.00;;;;;;111047;1244;48842;-70
2023/07/14 02:10:31;;;;;;;;;10.00;9.25;29.70;53.90;;;;;;111124;1244;48850;-70
2023/07/14 02:13:00;;;;;;;;;11.00;10.00;29.70;53.90;;;;;;111090;1244;54403;-69
2023/07/14 02:15:31;;;;;;;;;11.00;10.00;29.70;53.90;;;;;;110929;1247;44551;-70
2023/07/14 02:17:59;;;;;;;;;10.00;8.00;29.70;53.90;;;;;;110973;1244;49236;-69
2023/07/14 02:20:33;;;;;;;;;8.00;7.00;29.70;53.90;;;;;;110998;1246;50496;-69
2023/07/14 02:23:02;;;;;;;;;9.00;8.00;29.60;53.90;;;;;;110906;1247;54998;-70
2023/07/14 02:25:41;;;;;;;;;12.00;10.00;29.60;53.90;;;;;;110956;1244;45447;-71
2023/07/14 02:28:09;;;;;;;;;9.25;9.00;29.60;53.90;;;;;;111035;1246;49935;-72
2023/07/14 02:30:38;;;;;;;;;10.00;10.00;29.60;53.90;;;;;;111137;1243;49318;-70
2023/07/14 02:33:13;;;;;;;;;11.00;10.00;29.60;54.40;;;;;;111063;1247;53879;-70
2023/07/14 02:36:00;;;;;;;;;9.00;8.00;29.60;53.90;;;;;;111184;1242;44889;-69
2023/07/14 02:38:27;;;;;;;;;9.00;8.00;29.60;54.00;;;;;;111041;1241;48542;-69
2023/07/14 02:41:02;;;;;;;;;9.00;8.00;29.60;53.90;;;;;;110947;1244;49329;-70
2023/07/14 02:43:29;;;;;;;;;11.00;10.50;29.60;54.00;;;;;;110885;1248;53477;-70
2023/07/14 02:45:58;;;;;;;;;10.25;9.25;29.60;54.00;;;;;;110944;1244;44397;-70
2023/07/14 02:48:31;;;;;;;;;11.00;9.00;29.60;54.00;;;;;;111001;1247;50227;-70
2023/07/14 02:50:58;;;;;;;;;10.00;9.00;29.60;54.00;;;;;;111102;1247;49792;-70
2023/07/14 02:53:25;;;;;;;;;10.00;9.00;29.60;54.00;;;;;;111051;1243;54228;-68
2023/07/14 02:55:52;;;;;;;;;9.00;9.00;29.60;54.00;;;;;;110929;1247;44692;-71
2023/07/14 02:58:19;;;;;;;;;10.50;9.50;29.60;54.00;;;;;;110996;1242;48419;-69
2023/07/14 03:00:46;;;;;;;;;9.50;8.50;29.60;54.00;;;;;;110904;1247;48822;-71
2023/07/14 03:03:13;;;;;;;;;10.00;9.25;29.60;54.00;;;;;;110980;1244;54043;-71
2023/07/14 03:05:40;;;;;;;;;9.67;8.67;29.50;54.00;;;;;;111387;1248;44619;-71
2023/07/14 03:08:14;;;;;;;;;9.00;8.00;29.50;54.00;;;;;;111016;1247;49465;-72
2023/07/14 03:10:47;;;;;;;;;10.00;9.00;29.50;53.90;;;;;;111111;1247;49319;-72
2023/07/14 03:13:16;;;;;;;;;10.50;9.50;29.50;54.20;;;;;;111090;1247;54321;-71
2023/07/14 03:15:44;;;;;;;;;10.75;9.50;29.60;54.00;;;;;;111394;1243;44350;-73
2023/07/14 03:18:11;;;;;;;;;9.00;8.00;29.60;54.00;;;;;;111057;1246;49574;-72
2023/07/14 03:20:38;;;;;;;;;9.00;8.00;29.50;53.90;;;;;;111041;1244;49024;-71
2023/07/14 03:23:06;;;;;;;;;10.33;10.00;29.60;54.00;;;;;;111056;1243;54865;-71
2023/07/14 03:25:34;;;;;;;;;9.00;8.00;29.60;54.00;;;;;;111335;1247;44904;-72
2023/07/14 03:28:01;;;;;;;;;9.00;8.67;29.50;53.90;;;;;;111021;1247;48906;-71
2023/07/14 03:30:34;;;;;;;;;9.00;8.00;29.50;53.90;;;;;;111085;1247;48870;-71
2023/07/14 03:33:00;;;;;;;;;10.25;9.00;29.50;54.00;;;;;;110959;1244;53916;-70
2023/07/14 03:35:27;;;;;;;;;9.00;9.00;29.50;54.00;;;;;;111354;1243;44646;-71
2023/07/14 03:37:54;;;;;;;;;11.00;10.00;29.50;54.00;;;;;;110999;1247;48658;-70
2023/07/14 03:40:21;;;;;;;;;10.50;9.00;29.50;53.50;;;;;;111015;1241;48718;-71
2023/07/14 03:42:48;;;;;;;;;8.50;8.00;29.50;54.20;;;;;;111027;1247;53687;-71
2023/07/14 03:45:15;;;;;;;;;8.00;7.00;29.50;54.00;;;;;;111346;1247;44828;-73
2023/07/14 03:47:42;;;;;;;;;10.00;9.67;29.50;54.00;;;;;;110993;1244;49023;-73
2023/07/14 03:50:11;;;;;;;;;9.00;8.00;29.50;54.20;;;;;;110992;1244;49140;-72
2023/07/14 03:52:38;;;;;;;;;9.00;8.00;29.50;54.00;;;;;;111051;1247;53458;-71
2023/07/14 03:55:07;;;;;;;;;10.00;10.00;29.50;54.00;;;;;;111361;1241;44702;-71
2023/07/14 03:57:35;;;;;;;;;11.00;9.67;29.50;54.00;;;;;;111154;1244;49356;-72
2023/07/14 04:00:11;;;;;;;;;10.00;9.25;29.50;53.90;;;;;;111076;1243;49377;-71
2023/07/14 04:02:40;;;;;;;;;11.00;10.00;29.50;54.00;;;;;;111111;1244;54128;-72
2023/07/14 04:05:08;;;;;;;;;9.00;7.00;29.50;54.20;;;;;;111341;1247;44795;-72
2023/07/14 04:07:36;;;;;;;;;10.75;10.00;29.50;54.20;;;;;;111322;1241;48717;-72
2023/07/14 04:10:04;;;;;;;;;13.00;12.50;29.50;54.40;;;;;;111110;1244;48689;-75
2023/07/14 04:12:32;;;;;;;;;14.50;12.50;29.50;54.40;;;;;;111069;1247;53495;-74
2023/07/14 04:15:00;;;;;;;;;15.00;13.33;29.50;54.50;;;;;;110936;1243;44355;-74
2023/07/14 04:17:28;;;;;;;;;12.00;11.50;29.50;54.40;;;;;;110916;1247;49045;-69
2023/07/14 04:19:55;;;;;;;;;14.50;13.25;29.50;54.40;;;;;;111037;1246;49340;-74
2023/07/14 04:22:23;;;;;;;;;12.00;11.00;29.50;54.60;;;;;;111086;1247;53202;-72
2023/07/14 04:24:50;;;;;;;;;13.75;13.25;29.40;54.50;;;;;;110922;1243;44303;-72
2023/07/14 04:27:17;;;;;;;;;16.00;13.00;29.40;54.50;;;;;;110895;1244;49250;-71
2023/07/14 04:29:44;;;;;;;;;13.00;11.25;29.40;54.40;;;;;;110931;1244;49766;-72
2023/07/14 04:32:11;;;;;;;;;15.25;13.75;29.40;54.40;;;;;;111064;1243;54293;-71
2023/07/14 04:34:38;;;;;;;;;16.00;14.33;29.40;54.50;;;;;;111330;1244;44496;-73
2023/07/14 04:37:06;;;;;;;;;16.50;15.25;29.40;54.60;;;;;;111043;1247;49179;-71
2023/07/14 04:39:33;;;;;;;;;19.00;15.00;29.30;55.00;;;;;;111077;1241;50565;-68
2023/07/14 04:43:01;;;;;;;;;13.67;13.00;29.30;56.10;;;;;;108280;1272;34851;-70
2023/07/14 04:45:28;;;;;;;;;16.50;15.25;29.20;55.00;;;;;;110238;1258;48572;-71
2023/07/14 04:47:56;;;;;;;;;15.25;12.00;29.20;55.00;;;;;;110027;1253;53792;-70
2023/07/14 04:50:23;;;;;;;;;15.00;13.00;29.20;55.10;;;;;;109872;1255;44600;-70
2023/07/14 04:52:50;;;;;;;;;14.00;12.00;29.20;54.40;;;;;;109983;1253;49723;-71
2023/07/14 04:55:17;;;;;;;;;14.00;13.33;29.20;54.30;;;;;;109788;1254;49437;-70
2023/07/14 04:57:44;;;;;;;;;13.33;13.00;29.20;54.30;;;;;;109622;1255;640972;-69
2023/07/14 05:00:11;;;;;;;;;12.00;11.25;29.20;53.90;;;;;;110138;1250;45491;-71
2023/07/14 05:02:39;;;;;;;;;13.67;13.33;29.10;53.80;;;;;;110191;1254;48880;-70
2023/07/14 05:05:14;;;;;;;;;13.75;12.75;29.10;53.90;;;;;;109890;1256;49463;-69
2023/07/14 05:07:41;;;;;;;;;12.25;11.25;29.10;54.00;;;;;;110602;1250;53362;-69
2023/07/14 05:10:08;;;;;;;;;13.67;13.33;29.00;54.40;;;;;;110527;1247;44910;-74
2023/07/14 05:12:36;;;;;;;;;14.00;13.00;29.00;53.90;;;;;;110812;1246;49560;-70
2023/07/14 05:15:05;;;;;;;;;15.00;14.50;28.90;53.90;;;;;;110415;1247;49875;-69
2023/07/14 05:17:34;;;;;;;;;14.00;13.00;28.90;54.00;;;;;;110720;1250;53915;-71
2023/07/14 05:20:01;;;;;;;;;15.00;13.25;28.90;54.00;;;;;;110713;1246;46233;-71
2023/07/14 05:22:28;;;;;;;;;15.25;13.00;28.90;54.00;;;;;;110944;1247;49342;-68
2023/07/14 05:24:55;;;;;;;;;13.00;12.00;28.80;53.90;;;;;;111199;1243;50840;-70
2023/07/14 05:27:22;;;;;;;;;16.00;13.33;28.70;53.90;;;;;;110943;1243;53877;-72
2023/07/14 05:29:50;;;;;;;;;13.67;12.67;28.70;54.20;;;;;;110976;1243;44856;-73
2023/07/14 05:32:17;;;;;;;;;15.00;14.00;28.70;54.30;;;;;;110883;1247;49327;-73
2023/07/14 05:34:43;;;;;;;;;14.00;12.25;28.70;54.40;;;;;;111172;1243;48986;-73
2023/07/14 05:37:11;;;;;;;;;15.50;14.25;28.60;54.30;;;;;;110898;1243;53351;-73
2023/07/14 05:39:38;;;;;;;;;13.00;12.25;28.70;54.40;;;;;;110909;1243;44575;-73
2023/07/14 05:42:05;;;;;;;;;12.00;11.50;28.60;54.50;;;;;;110845;1244;49765;-73
2023/07/14 05:44:32;;;;;;;;;13.00;12.00;28.60;54.20;;;;;;111216;1248;49772;-73
2023/07/14 05:46:59;;;;;;;;;13.25;12.25;28.50;54.00;;;;;;110793;1245;53997;-73
2023/07/14 05:49:26;;;;;;;;;12.00;11.33;28.50;53.80;;;;;;110859;1246;44871;-73
2023/07/14 05:51:53;;;;;;;;;12.00;11.33;28.50;53.80;;;;;;110841;1248;49772;-74
2023/07/14 05:54:21;;;;;;;;;13.50;11.75;28.50;54.00;;;;;;111027;1250;49549;-73
2023/07/14 05:56:48;;;;;;;;;12.25;11.50;28.40;53.80;;;;;;110939;1243;54065;-73
2023/07/14 05:59:15;;;;;;;;;13.00;10.75;28.40;53.40;;;;;;110848;1248;44755;-72
2023/07/14 06:01:42;;;;;;;;;11.75;11.00;28.40;53.80;;;;;;110921;1244;48942;-73
2023/07/14 06:04:10;;;;;;;;;10.00;9.00;28.40;53.70;;;;;;110985;1243;49633;-74
2023/07/14 06:06:37;;;;;;;;;10.25;9.00;28.40;53.60;;;;;;111076;1247;53679;-73
2023/07/14 06:09:05;;;;;;;;;12.00;10.00;28.40;53.50;;;;;;110828;1243;44265;-73
2023/07/14 06:11:32;;;;;;;;;12.00;11.00;28.30;53.50;;;;;;110904;1244;48803;-73
2023/07/14 06:13:59;;;;;;;;;14.25;10.25;28.30;53.50;;;;;;110895;1248;49192;-72
2023/07/14 06:16:26;;;;;;;;;13.00;11.00;28.30;53.60;;;;;;111167;1248;53962;-71
2023/07/14 06:18:54;;;;;;;;;11.67;11.00;28.30;53.70;;;;;;110866;1243;45424;-73
2023/07/14 06:21:21;;;;;;;;;11.75;10.75;28.30;53.70;;;;;;110852;1244;49499;-73
2023/07/14 06:23:48;;;;;;;;;10.00;9.00;28.30;53.80;;;;;;110963;1247;49527;-72
2023/07/14 06:26:15;;;;;;;;;11.25;10.25;28.30;54.00;;;;;;111144;1244;53988;-77
2023/07/14 06:28:42;;;;;;;;;12.00;10.00;28.30;53.70;;;;;;111021;1244;44837;-73
2023/07/14 06:31:13;;;;;;;;;11.00;10.00;28.30;53.90;;;;;;110769;1244;49417;-73
2023/07/14 06:33:40;;;;;;;;;11.00;10.25;28.30;53.70;;;;;;110836;1246;48850;-72
2023/07/14 06:36:08;;;;;;;;;10.33;9.67;28.30;53.60;;;;;;111048;1244;55182;-72
2023/07/14 06:38:35;;;;;;;;;12.00;10.00;28.30;53.50;;;;;;110837;1244;45149;-72
2023/07/14 06:41:07;;;;;;;;;11.50;10.00;28.30;53.50;;;;;;110726;1244;50061;-72
2023/07/14 06:43:34;;;;;;;;;11.50;11.00;28.30;53.50;;;;;;110938;1248;49273;-72
2023/07/14 06:46:01;;;;;;;;;9.50;9.25;28.30;53.30;;;;;;111274;1243;53613;-72
2023/07/14 06:48:28;;;;;;;;;11.00;9.00;28.30;53.40;;;;;;110978;1244;44219;-72
2023/07/14 06:50:55;;;;;;;;;11.75;9.50;28.30;53.10;;;;;;111107;1243;49274;-73
2023/07/14 06:53:23;;;;;;;;;10.75;9.00;28.30;52.70;;;;;;110964;1243;49580;-72
2023/07/14 06:55:51;;;;;;;;;9.25;8.75;28.30;52.50;;;;;;111254;1247;54055;-72
2023/07/14 06:58:18;;;;;;;;;9.50;9.00;28.40;52.60;;;;;;111061;1243;44981;-73
2023/07/14 07:00:45;;;;;;;;;9.00;8.00;28.40;52.80;;;;;;111069;1244;50212;-73
2023/07/14 07:03:12;;;;;;;;;9.67;9.00;28.40;52.80;;;;;;110966;1247;49386;-73
2023/07/14 07:05:41;;;;;;;;;10.00;10.00;28.40;52.60;;;;;;111185;1243;54202;-68
2023/07/14 07:08:11;;;;;;;;;9.00;9.00;28.40;52.10;;;;;;110944;1243;44603;-68
2023/07/14 07:10:40;;;;;;;;;9.75;8.00;28.40;51.60;;;;;;110880;1248;49675;-69
2023/07/14 07:13:07;;;;;;;;;8.50;8.00;28.40;51.60;;;;;;110782;1244;49248;-68
2023/07/14 07:15:34;;;;;;;;;11.50;9.75;28.40;51.20;;;;;;111231;1243;54482;-69
2023/07/14 07:18:01;;;;;;;;;11.00;10.00;28.40;51.50;;;;;;110842;1243;45194;-66
2023/07/14 07:20:29;;;;;;;;;9.00;8.75;28.40;50.80;;;;;;110783;1243;49240;-70
2023/07/14 07:22:56;;;;;;;;;10.67;10.33;28.40;51.10;;;;;;110979;1244;49356;-70
2023/07/14 07:25:23;;;;;;;;;10.00;9.00;28.40;50.90;;;;;;111145;1244;53758;-73
2023/07/14 07:27:50;;;;;;;;;8.00;8.00;28.40;50.70;;;;;;110756;1244;44438;-75
2023/07/14 07:30:17;;;;;;;;;10.00;9.33;28.40;50.20;;;;;;110909;1243;49160;-73
2023/07/14 07:32:46;;;;;;;;;9.50;8.00;28.40;50.30;;;;;;111125;1243;50153;-67
2023/07/14 07:35:13;;;;;;;;;9.67;8.00;28.40;50.40;;;;;;111352;1248;54009;-68
2023/07/14 07:37:40;;;;;;;;;11.00;9.25;28.50;51.00;;;;;;111055;1247;44827;-66
2023/07/14 07:40:08;;;;;;;;;10.00;8.33;28.50;50.20;;;;;;111074;1244;49676;-65
2023/07/14 07:42:35;;;;;;;;;11.00;10.00;28.50;49.90;;;;;;111005;1243;50604;-67
2023/07/14 07:45:03;;;;;;;;;11.00;10.00;28.60;49.70;;;;;;110917;1248;54192;-66
2023/07/14 07:47:31;;;;;;;;;9.75;9.00;28.60;49.80;;;;;;111067;1243;45000;-67
2023/07/14 07:49:58;;;;;;;;;10.75;10.00;28.60;50.00;;;;;;111091;1244;49460;-66
2023/07/14 07:52:25;;;;;;;;;10.00;9.00;28.60;50.10;;;;;;111011;1248;49481;-67
2023/07/14 07:54:52;;;;;;;;;11.25;10.00;28.70;50.00;;;;;;111101;1243;54698;-67
2023/07/14 07:57:19;;;;;;;;;10.50;9.75;28.70;50.30;;;;;;111050;1247;44948;-68
2023/07/14 07:59:46;;;;;;;;;12.00;10.50;28.70;49.80;;;;;;111198;1248;49495;-70
2023/07/14 08:02:13;;;;;;;;;9.00;8.00;28.70;49.80;;;;;;111228;1247;50748;-73
2023/07/14 08:04:40;;;;;;;;;10.75;10.00;28.80;49.60;;;;;;111372;1247;54184;-73
2023/07/14 08:07:13;;;;;;;;;10.25;10.00;28.80;49.60;;;;;;111069;1247;44589;-71
2023/07/14 08:09:40;;;;;;;;;10.00;9.25;28.80;50.00;;;;;;111034;1243;50467;-69
2023/07/14 08:12:08;;;;;;;;;10.00;9.00;28.90;50.30;;;;;;111077;1247;49774;-68
2023/07/14 08:14:50;;;;;;;;;11.25;9.75;28.90;49.40;;;;;;111336;1247;53460;-75
2023/07/14 08:17:16;;;;;;;;;11.00;10.00;28.90;49.50;;;;;;111009;1247;44248;-70
2023/07/14 08:19:45;;;;;;;;;8.25;8.00;29.00;49.50;;;;;;111003;1243;49524;-69
2023/07/14 08:22:12;;;;;;;;;11.67;10.67;29.00;49.90;;;;;;110820;1248;48924;-70
2023/07/14 08:24:38;;;;;;;;;10.00;9.00;29.00;50.20;;;;;;111310;1247;53582;-71
2023/07/14 08:27:06;;;;;;;;;10.00;9.25;29.10;50.30;;;;;;111028;1247;45772;-66
2023/07/14 08:29:33;;;;;;;;;9.00;8.00;29.10;49.70;;;;;;110881;1244;49852;-68
2023/07/14 08:32:00;;;;;;;;;11.33;10.00;29.10;49.40;;;;;;110865;1244;49528;-68
2023/07/14 08:34:29;;;;;;;;;10.00;8.67;29.10;50.10;;;;;;110852;1246;55116;-65
2023/07/14 08:36:57;;;;;;;;;12.75;11.50;29.20;49.80;;;;;;110868;1248;44446;-67
2023/07/14 08:39:26;;;;;;;;;11.00;10.00;29.20;49.50;;;;;;110904;1248;49305;-67
2023/07/14 08:41:59;;;;;;;;;11.25;10.50;29.30;49.30;;;;;;110984;1243;49241;-68
2023/07/14 08:44:37;;;;;;;;;9.00;9.00;29.30;49.00;;;;;;111119;1247;53610;-66
2023/07/14 08:47:30;;;;;;;;;11.25;11.00;29.30;49.00;;;;;;111046;1243;45325;-66
2023/07/14 08:50:16;;;;;;;;;10.00;9.00;29.40;49.40;;;;;;110898;1244;49205;-71
2023/07/14 08:52:44;;;;;;;;;9.50;9.25;29.40;49.50;;;;;;111020;1247;49545;-73
2023/07/14 08:55:33;;;;;;;;;9.67;8.00;29.40;50.00;;;;;;110989;1248;54802;-66
2023/07/14 08:58:04;;;;;;;;;9.50;9.00;29.50;50.00;;;;;;110913;1249;44615;-67
2023/07/14 09:00:37;;;;;;;;;9.25;9.00;29.50;49.30;;;;;;110970;1244;50035;-66
2023/07/14 09:03:14;;;;;;;;;10.25;10.00;29.50;48.80;;;;;;110978;1244;49039;-64
2023/07/14 09:05:55;;;;;;;;;9.25;8.75;29.50;49.40;;;;;;111016;1246;53494;-65
2023/07/14 09:08:26;;;;;;;;;11.75;9.75;29.50;49.80;;;;;;111104;1243;44385;-66
2023/07/14 09:11:13;;;;;;;;;10.00;9.00;29.60;49.50;;;;;;111023;1246;48740;-70
2023/07/14 09:13:50;;;;;;;;;10.25;10.00;29.60;49.40;;;;;;111115;1243;49967;-68
2023/07/14 09:16:21;;;;;;;;;12.00;11.00;29.60;48.70;;;;;;111178;1241;54268;-66
2023/07/14 09:18:56;;;;;;;;;11.50;10.25;29.70;48.60;;;;;;111015;1246;44571;-68
2023/07/14 09:22:07;;;;;;;;;11.00;10.00;29.80;49.00;;;;;;111087;1241;48747;-68
2023/07/14 09:24:52;;;;;;;;;13.00;11.33;29.80;48.10;;;;;;110820;1247;49539;-65
2023/07/14 09:27:26;;;;;;;;;11.67;10.00;29.90;48.10;;;;;;110888;1243;53581;-66
2023/07/14 09:29:54;;;;;;;;;10.00;10.00;30.00;48.90;;;;;;110983;1247;45090;-66
2023/07/14 09:32:32;;;;;;;;;11.00;9.67;30.00;49.10;;;;;;111065;1241;50170;-67
2023/07/14 09:35:09;;;;;;;;;10.75;10.25;30.00;49.20;;;;;;111560;1242;50035;-70
2023/07/14 09:37:43;;;;;;;;;10.50;9.50;30.00;48.80;;;;;;111306;1246;54221;-65
2023/07/14 09:40:23;;;;;;;;;12.25;11.00;30.10;48.00;;;;;;111178;1246;46633;-66
2023/07/14 09:42:53;;;;;;;;;10.50;9.75;30.20;47.60;;;;;;110800;1247;49829;-68
2023/07/14 09:45:22;;;;;;;;;11.00;10.00;30.20;46.80;;;;;;111444;1242;50197;-69
2023/07/14 09:47:56;;;;;;;;;12.33;11.67;30.20;46.40;;;;;;111167;1244;53649;-68
2023/07/14 09:50:25;;;;;;;;;24.25;20.00;30.20;46.30;;;;;;111189;1241;44968;-69
2023/07/14 09:52:55;;;;;;;;;13.50;12.25;30.30;48.10;;;;;;112987;1246;49835;-69
2023/07/14 09:55:24;;;;;;;;;11.75;10.75;30.40;47.00;;;;;;111338;1247;49340;-65
2023/07/14 09:57:53;;;;;;;;;10.00;9.25;30.50;46.80;;;;;;110992;1241;53957;-63
2023/07/14 10:00:24;;;;;;;;;11.00;10.75;30.50;46.70;;;;;;111002;1243;44974;-68
2023/07/14 10:03:07;;;;;;;;;10.25;9.00;30.50;47.00;;;;;;111077;1243;49746;-68
2023/07/14 10:05:43;;;;;;;;;12.67;10.33;30.50;46.60;;;;;;111403;1248;49032;-68
2023/07/14 10:08:46;;;;;;;;;10.00;9.00;30.50;47.60;;;;;;111063;1246;54253;-64
2023/07/14 10:11:19;;;;;;;;;9.75;9.00;30.60;48.00;;;;;;111094;1241;44123;-68
2023/07/14 10:13:52;;;;;;;;;9.00;9.00;30.60;47.10;;;;;;111180;1240;48414;-70
2023/07/14 10:16:19;;;;;;;;;12.00;11.00;30.60;47.50;;;;;;111525;1244;49431;-69
2023/07/14 10:18:51;;;;;;;;;11.25;10.00;30.60;48.30;;;;;;111319;1240;53297;-70
2023/07/14 10:21:30;;;;;;;;;11.50;10.75;30.60;48.60;;;;;;111392;1240;44395;-70
2023/07/14 10:24:12;;;;;;;;;12.00;10.00;30.60;48.10;;;;;;111523;1243;49097;-70
2023/07/14 10:26:42;;;;;;;;;10.67;9.00;30.60;48.40;;;;;;111288;1243;50833;-69
2023/07/14 10:29:18;;;;;;;;;11.75;10.50;30.70;48.40;;;;;;111229;1241;54230;-69
2023/07/14 10:31:57;;;;;;;;;11.33;11.00;30.70;47.60;;;;;;111116;1241;46073;-69
2023/07/14 10:34:34;;;;;;;;;11.00;9.00;30.70;47.20;;;;;;111351;1244;49675;-69
2023/07/14 10:37:04;;;;;;;;;13.00;10.67;30.70;46.50;;;;;;111325;1240;49878;-69
2023/07/14 10:39:40;;;;;;;;;12.00;11.00;30.80;46.60;;;;;;111316;1244;55601;-69
2023/07/14 10:42:20;;;;;;;;;12.00;11.25;30.70;46.50;;;;;;111120;1247;45123;-69
2023/07/14 10:44:48;;;;;;;;;13.00;12.00;30.80;46.80;;;;;;111638;1241;51127;-70
2023/07/14 10:47:20;;;;;;;;;11.00;10.00;30.80;47.50;;;;;;111282;1245;49748;-69
2023/07/14 10:50:22;;;;;;;;;12.00;11.00;30.70;47.50;;;;;;111151;1246;54768;-70
2023/07/14 10:52:53;;;;;;;;;12.25;11.25;30.80;47.20;;;;;;111246;1241;44337;-70
2023/07/14 10:55:25;;;;;;;;;11.33;11.00;30.70;47.50;;;;;;111622;1241;49170;-69
2023/07/14 10:57:59;;;;;;;;;12.67;11.00;30.80;47.30;;;;;;111472;1244;49026;-68
2023/07/14 11:00:33;;;;;;;;;11.50;10.50;30.80;47.50;;;;;;111043;1247;53108;-69
2023/07/14 11:03:13;;;;;;;;;11.00;10.25;30.80;47.60;;;;;;111434;1246;44674;-70
2023/07/14 11:05:44;;;;;;;;;11.00;10.33;30.80;48.40;;;;;;111726;1244;50224;-69
2023/07/14 11:08:11;;;;;;;;;11.00;10.00;30.80;48.50;;;;;;111050;1247;49646;-70
2023/07/14 11:10:45;;;;;;;;;10.50;10.50;30.80;48.60;;;;;;111246;1240;54556;-71
2023/07/14 11:13:15;;;;;;;;;12.00;11.00;30.80;48.70;;;;;;111157;1240;44499;-70
2023/07/14 11:15:46;;;;;;;;;12.00;11.00;30.80;48.90;;;;;;111394;1242;49560;-72
2023/07/14 11:18:27;;;;;;;;;12.75;11.25;30.80;48.80;;;;;;111293;1244;49080;-70
2023/07/14 11:21:10;;;;;;;;;11.00;10.00;30.80;48.90;;;;;;111280;1244;54189;-66
2023/07/14 11:23:49;;;;;;;;;10.75;9.50;30.80;49.90;;;;;;111428;1240;45254;-68
2023/07/14 11:26:46;;;;;;;;;10.00;9.00;;;;;;;;111498;1241;50215;-68
2023/07/14 11:29:17;;;;;;;;;10.33;9.67;30.70;49.20;;;;;;111070;1240;49524;-67
2023/07/14 11:31:58;;;;;;;;;10.75;9.75;30.80;49.90;;;;;;111355;1244;53723;-67
2023/07/14 11:34:40;;;;;;;;;10.00;9.00;30.70;49.60;;;;;;111374;1244;44408;-66
2023/07/14 11:37:14;;;;;;;;;11.50;10.00;30.70;49.50;;;;;;111308;1240;50151;-67
2023/07/14 11:39:56;;;;;;;;;9.75;8.50;30.70;49.40;;;;;;111387;1244;49747;-65
2023/07/14 11:42:26;;;;;;;;;10.25;10.00;30.70;48.70;;;;;;111015;1244;54170;-67
2023/07/14 11:44:56;;;;;;;;;10.67;9.67;30.70;49.00;;;;;;111605;1244;45999;-69
2023/07/14 11:47:32;;;;;;;;;12.25;11.00;30.70;49.40;;;;;;111259;1243;50921;-66
2023/07/14 11:50:03;;;;;;;;;11.00;9.50;30.70;50.10;;;;;;111352;1244;49665;-66
2023/07/14 11:52:30;;;;;;;;;12.00;10.25;30.70;49.70;;;;;;111171;1240;53740;-67
2023/07/14 11:55:03;;;;;;;;;11.00;9.50;30.70;49.20;;;;;;111653;1244;44900;-64
2023/07/14 11:57:50;;;;;;;;;11.00;11.00;30.70;50.30;;;;;;111377;1241;50538;-65
2023/07/14 12:00:23;;;;;;;;;10.33;9.33;30.70;49.40;;;;;;111382;1240;48908;-67
2023/07/14 12:02:53;;;;;;;;;10.50;9.00;30.80;49.80;;;;;;111343;1243;53886;-69
2023/07/14 12:05:22;;;;;;;;;7.00;7.00;30.80;49.90;;;;;;111611;1240;45225;-71
2023/07/14 12:08:04;;;;;;;;;10.00;9.00;30.70;49.60;;;;;;111374;1240;48729;-69
2023/07/14 12:10:43;;;;;;;;;9.75;9.25;30.80;49.90;;;;;;111377;1243;49385;-71
2023/07/14 12:13:16;;;;;;;;;9.00;8.00;30.80;49.90;;;;;;111375;1242;54134;-69
2023/07/14 12:15:45;;;;;;;;;8.00;7.00;30.80;50.30;;;;;;111698;1239;45231;-68
2023/07/14 12:18:32;;;;;;;;;10.25;9.25;30.80;50.30;;;;;;111250;1240;48755;-71
2023/07/14 12:21:14;;;;;;;;;10.00;9.00;30.80;50.50;;;;;;111347;1240;48848;-72
2023/07/14 12:23:43;;;;;;;;;10.67;10.00;30.80;50.10;;;;;;111296;1244;53425;-70
2023/07/14 12:26:19;;;;;;;;;10.00;9.00;30.80;50.00;;;;;;111562;1243;45528;-69
2023/07/14 12:28:47;;;;;;;;;7.75;6.75;30.80;50.10;;;;;;111271;1240;49089;-68
2023/07/14 12:31:17;;;;;;;;;9.75;9.25;30.80;50.50;;;;;;111443;1243;49638;-69
2023/07/14 12:33:45;;;;;;;;;9.00;8.00;30.80;49.90;;;;;;111163;1244;54141;-67
2023/07/14 12:36:15;;;;;;;;;9.25;9.00;30.80;50.10;;;;;;111474;1244;44683;-71
2023/07/14 12:38:50;;;;;;;;;9.00;8.25;30.70;49.90;;;;;;111124;1244;48983;-69
2023/07/14 12:41:18;;;;;;;;;8.00;7.00;30.80;50.30;;;;;;111344;1240;49506;-70
2023/07/14 12:43:59;;;;;;;;;9.00;7.00;30.70;50.50;;;;;;111500;1241;53493;-68
2023/07/14 12:46:30;;;;;;;;;8.00;7.00;30.70;50.50;;;;;;111282;1244;44480;-68